sensor_id;sensor_type;location;lat;lon;timestamp;temperature;humidity
7846;DHT22;3968;51.424;6.788;2023-12-20T00:00:55;8.70;99.90
7846;DHT22;3968;51.424;6.788;2023-12-20T00:03:20;8.70;99.90
7846;DHT22;3968;51.424;6.788;2023-12-20T00:05:47;8.80;99.90
7846;DHT22;3968;51.424;6.788;2023-12-20T00:08:13;8.80;99.90
7846;DHT22;3968;51.424;6.788;2023-12-20T00:10:38;8.70;99.90
7846;DHT22;3968;51.424;6.788;2023-12-20T00:13:04;8.60;99.90
7846;DHT22;3968;51.424;6.788;2023-12-20T00:15:30;8.60;99.90
7846;DHT22;3968;51.424;6.788;2023-12-20T00:17:55;8.60;99.90
7846;DHT22;3968;51.424;6.788;2023-12-20T00:20:21;8.50;99.90
7846;DHT22;3968;51.424;6.788;2023-12-20T00:22:46;8.50;99.90
7846;DHT22;3968;51.424;6.788;2023-12-20T00:25:12;8.40;99.90
7846;DHT22;3968;51.424;6.788;2023-12-20T00:27:38;8.40;99.90
7846;DHT22;3968;51.424;6.788;2023-12-20T00:30:04;8.30;99.90
7846;DHT22;3968;51.424;6.788;2023-12-20T00:32:29;8.30;99.90
7846;DHT22;3968;51.424;6.788;2023-12-20T00:34:55;8.20;99.90
7846;DHT22;3968;51.424;6.788;2023-12-20T00:37:21;8.30;99.90
7846;DHT22;3968;51.424;6.788;2023-12-20T00:39:47;8.20;99.90
7846;DHT22;3968;51.424;6.788;2023-12-20T00:42:13;8.20;99.90
7846;DHT22;3968;51.424;6.788;2023-12-20T00:44:39;8.20;99.90
7846;DHT22;3968;51.424;6.788;2023-12-20T00:47:04;8.20;99.90
7846;DHT22;3968;51.424;6.788;2023-12-20T00:49:30;8.20;99.90
7846;DHT22;3968;51.424;6.788;2023-12-20T00:51:55;8.20;99.90
7846;DHT22;3968;51.424;6.788;2023-12-20T00:54:21;8.20;99.90
7846;DHT22;3968;51.424;6.788;2023-12-20T00:56:47;8.30;99.90
7846;DHT22;3968;51.424;6.788;2023-12-20T00:59:12;8.30;99.90
7846;DHT22;3968;51.424;6.788;2023-12-20T01:01:38;8.20;99.90
7846;DHT22;3968;51.424;6.788;2023-12-20T01:04:04;8.20;99.90
7846;DHT22;3968;51.424;6.788;2023-12-20T01:06:29;8.20;99.90
7846;DHT22;3968;51.424;6.788;2023-12-20T01:08:55;8.20;99.90
7846;DHT22;3968;51.424;6.788;2023-12-20T01:11:21;8.30;99.90
7846;DHT22;3968;51.424;6.788;2023-12-20T01:13:47;8.20;99.90
7846;DHT22;3968;51.424;6.788;2023-12-20T01:16:13;8.20;99.90
7846;DHT22;3968;51.424;6.788;2023-12-20T01:18:38;8.30;99.90
7846;DHT22;3968;51.424;6.788;2023-12-20T01:21:04;8.20;99.90
7846;DHT22;3968;51.424;6.788;2023-12-20T01:23:30;8.20;99.90
7846;DHT22;3968;51.424;6.788;2023-12-20T01:25:56;8.20;99.90
7846;DHT22;3968;51.424;6.788;2023-12-20T01:28:22;8.20;99.90
7846;DHT22;3968;51.424;6.788;2023-12-20T01:30:48;8.20;99.90
7846;DHT22;3968;51.424;6.788;2023-12-20T01:33:13;8.10;99.90
7846;DHT22;3968;51.424;6.788;2023-12-20T01:35:39;8.00;99.90
7846;DHT22;3968;51.424;6.788;2023-12-20T01:38:04;8.10;99.90
7846;DHT22;3968;51.424;6.788;2023-12-20T01:40:30;8.10;99.90
7846;DHT22;3968;51.424;6.788;2023-12-20T01:43:00;8.10;99.90
7846;DHT22;3968;51.424;6.788;2023-12-20T01:45:26;8.10;99.90
7846;DHT22;3968;51.424;6.788;2023-12-20T01:47:52;8.00;99.90
7846;DHT22;3968;51.424;6.788;2023-12-20T01:50:18;8.00;99.90
7846;DHT22;3968;51.424;6.788;2023-12-20T01:52:44;8.00;99.90
7846;DHT22;3968;51.424;6.788;2023-12-20T01:55:10;7.90;99.90
7846;DHT22;3968;51.424;6.788;2023-12-20T01:57:41;8.00;99.90
7846;DHT22;3968;51.424;6.788;2023-12-20T02:00:07;8.00;99.90
7846;DHT22;3968;51.424;6.788;2023-12-20T02:02:36;8.00;99.90
7846;DHT22;3968;51.424;6.788;2023-12-20T02:05:05;8.00;99.90
7846;DHT22;3968;51.424;6.788;2023-12-20T02:07:31;7.90;99.90
7846;DHT22;3968;51.424;6.788;2023-12-20T02:09:57;7.90;99.90
7846;DHT22;3968;51.424;6.788;2023-12-20T02:12:22;7.90;99.90
7846;DHT22;3968;51.424;6.788;2023-12-20T02:14:48;8.00;99.90
7846;DHT22;3968;51.424;6.788;2023-12-20T02:17:15;7.90;99.90
7846;DHT22;3968;51.424;6.788;2023-12-20T02:19:40;7.90;99.90
7846;DHT22;3968;51.424;6.788;2023-12-20T02:22:12;7.90;99.90
7846;DHT22;3968;51.424;6.788;2023-12-20T02:24:38;7.90;99.90
7846;DHT22;3968;51.424;6.788;2023-12-20T02:27:06;7.90;99.90
7846;DHT22;3968;51.424;6.788;2023-12-20T02:29:36;7.80;99.90
7846;DHT22;3968;51.424;6.788;2023-12-20T02:32:02;7.80;99.90
7846;DHT22;3968;51.424;6.788;2023-12-20T02:34:28;7.80;99.90
7846;DHT22;3968;51.424;6.788;2023-12-20T02:36:54;7.80;99.90
7846;DHT22;3968;51.424;6.788;2023-12-20T02:39:19;7.80;99.90
7846;DHT22;3968;51.424;6.788;2023-12-20T02:41:45;7.80;99.90
7846;DHT22;3968;51.424;6.788;2023-12-20T02:44:11;7.70;99.90
7846;DHT22;3968;51.424;6.788;2023-12-20T02:46:36;7.70;99.90
7846;DHT22;3968;51.424;6.788;2023-12-20T02:49:02;7.60;99.90
7846;DHT22;3968;51.424;6.788;2023-12-20T02:51:27;7.60;99.90
7846;DHT22;3968;51.424;6.788;2023-12-20T02:53:53;7.60;99.90
7846;DHT22;3968;51.424;6.788;2023-12-20T02:56:19;7.60;99.90
7846;DHT22;3968;51.424;6.788;2023-12-20T02:58:44;7.50;99.90
7846;DHT22;3968;51.424;6.788;2023-12-20T03:01:10;7.50;99.90
7846;DHT22;3968;51.424;6.788;2023-12-20T03:03:35;7.50;99.90
7846;DHT22;3968;51.424;6.788;2023-12-20T03:06:01;7.50;99.90
7846;DHT22;3968;51.424;6.788;2023-12-20T03:08:26;7.50;99.90
7846;DHT22;3968;51.424;6.788;2023-12-20T03:10:52;7.50;99.90
7846;DHT22;3968;51.424;6.788;2023-12-20T03:13:19;7.40;99.90
7846;DHT22;3968;51.424;6.788;2023-12-20T03:15:45;7.40;99.90
7846;DHT22;3968;51.424;6.788;2023-12-20T03:18:11;7.40;99.90
7846;DHT22;3968;51.424;6.788;2023-12-20T03:20:36;7.50;99.90
7846;DHT22;3968;51.424;6.788;2023-12-20T03:23:02;7.40;99.90
7846;DHT22;3968;51.424;6.788;2023-12-20T03:25:28;7.40;99.90
7846;DHT22;3968;51.424;6.788;2023-12-20T03:27:54;7.40;99.90
7846;DHT22;3968;51.424;6.788;2023-12-20T03:30:19;7.40;99.90
7846;DHT22;3968;51.424;6.788;2023-12-20T03:32:45;7.40;99.90
7846;DHT22;3968;51.424;6.788;2023-12-20T03:35:11;7.40;99.90
7846;DHT22;3968;51.424;6.788;2023-12-20T03:37:37;7.40;99.90
7846;DHT22;3968;51.424;6.788;2023-12-20T03:40:03;7.30;99.90
7846;DHT22;3968;51.424;6.788;2023-12-20T03:42:28;7.40;99.90
7846;DHT22;3968;51.424;6.788;2023-12-20T03:44:54;7.40;99.90
7846;DHT22;3968;51.424;6.788;2023-12-20T03:47:20;7.40;99.90
7846;DHT22;3968;51.424;6.788;2023-12-20T03:49:45;7.40;99.90
7846;DHT22;3968;51.424;6.788;2023-12-20T03:52:11;7.40;99.90
7846;DHT22;3968;51.424;6.788;2023-12-20T03:54:37;7.40;99.90
7846;DHT22;3968;51.424;6.788;2023-12-20T03:57:03;7.40;99.90
7846;DHT22;3968;51.424;6.788;2023-12-20T03:59:29;7.40;99.90
7846;DHT22;3968;51.424;6.788;2023-12-20T04:01:55;7.30;99.90
7846;DHT22;3968;51.424;6.788;2023-12-20T04:04:21;7.20;99.90
7846;DHT22;3968;51.424;6.788;2023-12-20T04:06:46;7.20;99.90
7846;DHT22;3968;51.424;6.788;2023-12-20T04:09:12;7.20;99.90
7846;DHT22;3968;51.424;6.788;2023-12-20T04:11:37;7.30;99.90
7846;DHT22;3968;51.424;6.788;2023-12-20T04:14:03;7.20;99.90
7846;DHT22;3968;51.424;6.788;2023-12-20T04:16:32;7.20;99.90
7846;DHT22;3968;51.424;6.788;2023-12-20T04:18:58;7.20;99.90
7846;DHT22;3968;51.424;6.788;2023-12-20T04:21:23;7.20;99.90
7846;DHT22;3968;51.424;6.788;2023-12-20T04:23:49;7.10;99.90
7846;DHT22;3968;51.424;6.788;2023-12-20T04:26:14;7.20;99.90
7846;DHT22;3968;51.424;6.788;2023-12-20T04:28:40;7.20;99.90
7846;DHT22;3968;51.424;6.788;2023-12-20T04:31:06;7.20;99.90
7846;DHT22;3968;51.424;6.788;2023-12-20T04:33:31;7.20;99.90
7846;DHT22;3968;51.424;6.788;2023-12-20T04:35:57;7.30;99.90
7846;DHT22;3968;51.424;6.788;2023-12-20T04:38:23;7.30;99.90
7846;DHT22;3968;51.424;6.788;2023-12-20T04:40:48;7.30;99.90
7846;DHT22;3968;51.424;6.788;2023-12-20T04:43:14;7.30;99.90
7846;DHT22;3968;51.424;6.788;2023-12-20T04:45:40;7.30;99.90
7846;DHT22;3968;51.424;6.788;2023-12-20T04:48:06;7.30;99.90
7846;DHT22;3968;51.424;6.788;2023-12-20T04:50:31;7.30;99.90
7846;DHT22;3968;51.424;6.788;2023-12-20T04:52:57;7.20;99.90
7846;DHT22;3968;51.424;6.788;2023-12-20T04:55:23;7.20;99.90
7846;DHT22;3968;51.424;6.788;2023-12-20T04:57:48;7.10;99.90
7846;DHT22;3968;51.424;6.788;2023-12-20T05:00:14;7.10;99.90
7846;DHT22;3968;51.424;6.788;2023-12-20T05:02:41;7.10;99.90
7846;DHT22;3968;51.424;6.788;2023-12-20T05:05:07;7.20;99.90
7846;DHT22;3968;51.424;6.788;2023-12-20T05:07:32;7.20;99.90
7846;DHT22;3968;51.424;6.788;2023-12-20T05:09:58;7.20;99.90
7846;DHT22;3968;51.424;6.788;2023-12-20T05:12:24;7.10;99.90
7846;DHT22;3968;51.424;6.788;2023-12-20T05:14:52;7.10;99.90
7846;DHT22;3968;51.424;6.788;2023-12-20T05:17:17;7.00;99.90
7846;DHT22;3968;51.424;6.788;2023-12-20T05:19:43;7.10;99.90
7846;DHT22;3968;51.424;6.788;2023-12-20T05:22:09;7.00;99.90
7846;DHT22;3968;51.424;6.788;2023-12-20T05:24:35;7.10;99.90
7846;DHT22;3968;51.424;6.788;2023-12-20T05:27:00;7.10;99.90
7846;DHT22;3968;51.424;6.788;2023-12-20T05:29:26;7.10;99.90
7846;DHT22;3968;51.424;6.788;2023-12-20T05:31:52;7.10;99.90
7846;DHT22;3968;51.424;6.788;2023-12-20T05:34:17;7.10;99.90
7846;DHT22;3968;51.424;6.788;2023-12-20T05:36:43;7.10;99.90
7846;DHT22;3968;51.424;6.788;2023-12-20T05:39:08;7.10;99.90
7846;DHT22;3968;51.424;6.788;2023-12-20T05:41:34;7.10;99.90
7846;DHT22;3968;51.424;6.788;2023-12-20T05:43:59;7.10;99.90
7846;DHT22;3968;51.424;6.788;2023-12-20T05:46:25;7.10;99.90
7846;DHT22;3968;51.424;6.788;2023-12-20T05:48:51;7.10;99.90
7846;DHT22;3968;51.424;6.788;2023-12-20T05:51:17;7.10;99.90
7846;DHT22;3968;51.424;6.788;2023-12-20T05:53:44;7.20;99.90
7846;DHT22;3968;51.424;6.788;2023-12-20T05:56:10;7.20;99.90
7846;DHT22;3968;51.424;6.788;2023-12-20T05:58:36;7.20;99.90
7846;DHT22;3968;51.424;6.788;2023-12-20T06:01:05;7.20;99.90
7846;DHT22;3968;51.424;6.788;2023-12-20T06:03:31;7.20;99.90
7846;DHT22;3968;51.424;6.788;2023-12-20T06:05:57;7.20;99.90
7846;DHT22;3968;51.424;6.788;2023-12-20T06:08:22;7.20;99.90
7846;DHT22;3968;51.424;6.788;2023-12-20T06:10:48;7.30;99.90
7846;DHT22;3968;51.424;6.788;2023-12-20T06:13:14;7.20;99.90
7846;DHT22;3968;51.424;6.788;2023-12-20T06:15:40;7.20;99.90
7846;DHT22;3968;51.424;6.788;2023-12-20T06:18:06;7.20;99.90
7846;DHT22;3968;51.424;6.788;2023-12-20T06:20:32;7.30;99.90
7846;DHT22;3968;51.424;6.788;2023-12-20T06:22:58;7.30;99.90
7846;DHT22;3968;51.424;6.788;2023-12-20T06:25:24;7.30;99.90
7846;DHT22;3968;51.424;6.788;2023-12-20T06:27:50;7.30;99.90
7846;DHT22;3968;51.424;6.788;2023-12-20T06:30:16;7.30;99.90
7846;DHT22;3968;51.424;6.788;2023-12-20T06:32:41;7.30;99.90
7846;DHT22;3968;51.424;6.788;2023-12-20T06:35:08;7.30;99.90
7846;DHT22;3968;51.424;6.788;2023-12-20T06:37:34;7.30;99.90
7846;DHT22;3968;51.424;6.788;2023-12-20T06:39:59;7.30;99.90
7846;DHT22;3968;51.424;6.788;2023-12-20T06:42:25;7.30;99.90
7846;DHT22;3968;51.424;6.788;2023-12-20T06:44:50;7.30;99.90
7846;DHT22;3968;51.424;6.788;2023-12-20T06:47:16;7.30;99.90
7846;DHT22;3968;51.424;6.788;2023-12-20T06:49:42;7.40;99.90
7846;DHT22;3968;51.424;6.788;2023-12-20T06:52:07;7.40;99.90
7846;DHT22;3968;51.424;6.788;2023-12-20T06:54:33;7.40;99.90
7846;DHT22;3968;51.424;6.788;2023-12-20T06:57:00;7.40;99.90
7846;DHT22;3968;51.424;6.788;2023-12-20T06:59:25;7.40;99.90
7846;DHT22;3968;51.424;6.788;2023-12-20T07:01:51;7.50;99.90
7846;DHT22;3968;51.424;6.788;2023-12-20T07:04:17;7.50;99.90
7846;DHT22;3968;51.424;6.788;2023-12-20T07:06:47;7.50;99.90
7846;DHT22;3968;51.424;6.788;2023-12-20T07:09:13;7.50;99.90
7846;DHT22;3968;51.424;6.788;2023-12-20T07:11:39;7.50;99.90
7846;DHT22;3968;51.424;6.788;2023-12-20T07:14:05;7.50;99.90
7846;DHT22;3968;51.424;6.788;2023-12-20T07:16:30;7.50;99.90
7846;DHT22;3968;51.424;6.788;2023-12-20T07:18:56;7.40;99.90
7846;DHT22;3968;51.424;6.788;2023-12-20T07:21:22;7.50;99.90
7846;DHT22;3968;51.424;6.788;2023-12-20T07:23:48;7.50;99.90
7846;DHT22;3968;51.424;6.788;2023-12-20T07:26:14;7.50;99.90
7846;DHT22;3968;51.424;6.788;2023-12-20T07:28:40;7.50;99.90
7846;DHT22;3968;51.424;6.788;2023-12-20T07:31:06;7.50;99.90
7846;DHT22;3968;51.424;6.788;2023-12-20T07:33:31;7.50;99.90
7846;DHT22;3968;51.424;6.788;2023-12-20T07:35:58;7.50;99.90
7846;DHT22;3968;51.424;6.788;2023-12-20T07:38:24;7.50;99.90
7846;DHT22;3968;51.424;6.788;2023-12-20T07:40:50;7.50;99.90
7846;DHT22;3968;51.424;6.788;2023-12-20T07:43:15;7.60;99.90
7846;DHT22;3968;51.424;6.788;2023-12-20T07:45:41;7.50;99.90
7846;DHT22;3968;51.424;6.788;2023-12-20T07:48:07;7.50;99.90
7846;DHT22;3968;51.424;6.788;2023-12-20T07:50:33;7.50;99.90
7846;DHT22;3968;51.424;6.788;2023-12-20T07:52:58;7.60;99.90
7846;DHT22;3968;51.424;6.788;2023-12-20T07:55:26;7.60;99.90
7846;DHT22;3968;51.424;6.788;2023-12-20T07:57:52;7.60;99.90
7846;DHT22;3968;51.424;6.788;2023-12-20T08:00:18;7.60;99.90
7846;DHT22;3968;51.424;6.788;2023-12-20T08:02:43;7.60;99.90
7846;DHT22;3968;51.424;6.788;2023-12-20T08:05:09;7.70;99.90
7846;DHT22;3968;51.424;6.788;2023-12-20T08:07:35;7.60;99.90
7846;DHT22;3968;51.424;6.788;2023-12-20T08:10:00;7.60;99.90
7846;DHT22;3968;51.424;6.788;2023-12-20T08:12:26;7.60;99.90
7846;DHT22;3968;51.424;6.788;2023-12-20T08:14:53;7.60;99.90
7846;DHT22;3968;51.424;6.788;2023-12-20T08:17:19;7.60;99.90
7846;DHT22;3968;51.424;6.788;2023-12-20T08:19:45;7.70;99.90
7846;DHT22;3968;51.424;6.788;2023-12-20T08:22:11;7.70;99.90
7846;DHT22;3968;51.424;6.788;2023-12-20T08:24:37;7.70;99.90
7846;DHT22;3968;51.424;6.788;2023-12-20T08:27:04;7.70;99.90
7846;DHT22;3968;51.424;6.788;2023-12-20T08:29:29;7.70;99.90
7846;DHT22;3968;51.424;6.788;2023-12-20T08:31:55;7.80;99.90
7846;DHT22;3968;51.424;6.788;2023-12-20T08:34:21;7.80;99.90
7846;DHT22;3968;51.424;6.788;2023-12-20T08:36:47;7.70;99.90
7846;DHT22;3968;51.424;6.788;2023-12-20T08:39:13;7.70;99.90
7846;DHT22;3968;51.424;6.788;2023-12-20T08:41:38;7.80;99.90
7846;DHT22;3968;51.424;6.788;2023-12-20T08:44:04;7.80;99.90
7846;DHT22;3968;51.424;6.788;2023-12-20T08:46:29;7.70;99.90
7846;DHT22;3968;51.424;6.788;2023-12-20T08:48:55;7.70;99.90
7846;DHT22;3968;51.424;6.788;2023-12-20T08:51:21;7.70;99.90
7846;DHT22;3968;51.424;6.788;2023-12-20T08:53:49;7.60;99.90
7846;DHT22;3968;51.424;6.788;2023-12-20T08:56:16;7.70;99.90
7846;DHT22;3968;51.424;6.788;2023-12-20T08:58:43;7.70;99.90
7846;DHT22;3968;51.424;6.788;2023-12-20T09:01:09;7.70;99.90
7846;DHT22;3968;51.424;6.788;2023-12-20T09:03:35;7.70;99.90
7846;DHT22;3968;51.424;6.788;2023-12-20T09:06:00;7.70;99.90
7846;DHT22;3968;51.424;6.788;2023-12-20T09:08:26;7.80;99.90
7846;DHT22;3968;51.424;6.788;2023-12-20T09:10:52;7.80;99.90
7846;DHT22;3968;51.424;6.788;2023-12-20T09:13:17;7.70;99.90
7846;DHT22;3968;51.424;6.788;2023-12-20T09:15:43;7.80;99.90
7846;DHT22;3968;51.424;6.788;2023-12-20T09:18:08;7.70;99.90
7846;DHT22;3968;51.424;6.788;2023-12-20T09:20:34;7.80;99.90
7846;DHT22;3968;51.424;6.788;2023-12-20T09:23:00;7.80;99.90
7846;DHT22;3968;51.424;6.788;2023-12-20T09:25:26;7.80;99.90
7846;DHT22;3968;51.424;6.788;2023-12-20T09:27:54;7.80;99.90
7846;DHT22;3968;51.424;6.788;2023-12-20T09:30:20;7.80;99.90
7846;DHT22;3968;51.424;6.788;2023-12-20T09:32:46;7.80;99.90
7846;DHT22;3968;51.424;6.788;2023-12-20T09:35:11;7.80;99.90
7846;DHT22;3968;51.424;6.788;2023-12-20T09:37:37;7.80;99.90
7846;DHT22;3968;51.424;6.788;2023-12-20T09:40:03;7.80;99.90
7846;DHT22;3968;51.424;6.788;2023-12-20T09:43:18;7.80;99.90
7846;DHT22;3968;51.424;6.788;2023-12-20T09:45:24;7.90;99.90
7846;DHT22;3968;51.424;6.788;2023-12-20T09:47:53;7.80;99.90
7846;DHT22;3968;51.424;6.788;2023-12-20T09:50:21;7.80;99.90
7846;DHT22;3968;51.424;6.788;2023-12-20T09:52:52;7.80;99.90
7846;DHT22;3968;51.424;6.788;2023-12-20T09:55:18;7.80;99.90
7846;DHT22;3968;51.424;6.788;2023-12-20T09:57:46;7.80;99.90
7846;DHT22;3968;51.424;6.788;2023-12-20T10:00:12;7.90;99.90
7846;DHT22;3968;51.424;6.788;2023-12-20T10:02:45;7.80;99.90
7846;DHT22;3968;51.424;6.788;2023-12-20T10:05:16;7.80;99.90
7846;DHT22;3968;51.424;6.788;2023-12-20T10:07:45;7.90;99.90
7846;DHT22;3968;51.424;6.788;2023-12-20T10:10:13;7.90;99.90
7846;DHT22;3968;51.424;6.788;2023-12-20T10:12:38;7.90;99.90
7846;DHT22;3968;51.424;6.788;2023-12-20T10:15:05;7.90;99.90
7846;DHT22;3968;51.424;6.788;2023-12-20T10:17:31;8.00;99.90
7846;DHT22;3968;51.424;6.788;2023-12-20T10:19:57;8.00;99.90
7846;DHT22;3968;51.424;6.788;2023-12-20T10:22:23;8.10;99.90
7846;DHT22;3968;51.424;6.788;2023-12-20T10:24:49;8.00;99.90
7846;DHT22;3968;51.424;6.788;2023-12-20T10:27:18;8.00;99.90
7846;DHT22;3968;51.424;6.788;2023-12-20T10:29:44;8.10;99.90
7846;DHT22;3968;51.424;6.788;2023-12-20T10:32:22;8.10;99.90
7846;DHT22;3968;51.424;6.788;2023-12-20T10:34:49;8.00;99.90
7846;DHT22;3968;51.424;6.788;2023-12-20T10:37:15;8.00;99.90
7846;DHT22;3968;51.424;6.788;2023-12-20T10:39:42;8.10;99.90
7846;DHT22;3968;51.424;6.788;2023-12-20T10:42:10;8.10;99.90
7846;DHT22;3968;51.424;6.788;2023-12-20T10:44:36;8.10;99.90
7846;DHT22;3968;51.424;6.788;2023-12-20T10:47:03;8.10;99.90
7846;DHT22;3968;51.424;6.788;2023-12-20T10:49:30;8.00;99.90
7846;DHT22;3968;51.424;6.788;2023-12-20T10:51:57;8.10;99.90
7846;DHT22;3968;51.424;6.788;2023-12-20T10:54:25;8.10;99.90
7846;DHT22;3968;51.424;6.788;2023-12-20T10:56:52;8.10;99.90
7846;DHT22;3968;51.424;6.788;2023-12-20T10:59:19;8.10;99.90
7846;DHT22;3968;51.424;6.788;2023-12-20T11:01:47;8.20;99.90
7846;DHT22;3968;51.424;6.788;2023-12-20T11:04:24;8.20;99.90
7846;DHT22;3968;51.424;6.788;2023-12-20T11:06:58;8.10;99.90
7846;DHT22;3968;51.424;6.788;2023-12-20T11:09:35;8.10;99.90
7846;DHT22;3968;51.424;6.788;2023-12-20T11:12:22;8.10;99.90
7846;DHT22;3968;51.424;6.788;2023-12-20T11:14:53;8.20;99.90
7846;DHT22;3968;51.424;6.788;2023-12-20T11:17:21;8.20;99.90
7846;DHT22;3968;51.424;6.788;2023-12-20T11:22:25;8.20;99.90
7846;DHT22;3968;51.424;6.788;2023-12-20T11:24:52;8.30;99.90
7846;DHT22;3968;51.424;6.788;2023-12-20T11:27:19;8.30;99.90
7846;DHT22;3968;51.424;6.788;2023-12-20T11:29:52;8.40;99.90
7846;DHT22;3968;51.424;6.788;2023-12-20T11:34:59;8.40;99.90
7846;DHT22;3968;51.424;6.788;2023-12-20T11:37:35;8.40;99.90
7846;DHT22;3968;51.424;6.788;2023-12-20T11:40:05;8.50;99.90
7846;DHT22;3968;51.424;6.788;2023-12-20T11:42:38;8.50;99.90
7846;DHT22;3968;51.424;6.788;2023-12-20T11:45:05;8.50;99.90
7846;DHT22;3968;51.424;6.788;2023-12-20T11:47:31;8.50;99.90
7846;DHT22;3968;51.424;6.788;2023-12-20T11:49:57;8.50;99.90
7846;DHT22;3968;51.424;6.788;2023-12-20T11:52:25;8.40;99.90
7846;DHT22;3968;51.424;6.788;2023-12-20T11:54:51;8.40;99.90
7846;DHT22;3968;51.424;6.788;2023-12-20T11:57:17;8.40;99.90
7846;DHT22;3968;51.424;6.788;2023-12-20T11:59:42;8.40;99.90
7846;DHT22;3968;51.424;6.788;2023-12-20T12:02:08;8.40;99.90
7846;DHT22;3968;51.424;6.788;2023-12-20T12:04:36;8.30;99.90
7846;DHT22;3968;51.424;6.788;2023-12-20T12:07:02;8.30;99.90
7846;DHT22;3968;51.424;6.788;2023-12-20T12:09:28;8.40;99.90
7846;DHT22;3968;51.424;6.788;2023-12-20T12:11:54;8.40;99.90
7846;DHT22;3968;51.424;6.788;2023-12-20T12:14:20;8.40;99.90
7846;DHT22;3968;51.424;6.788;2023-12-20T12:16:46;8.40;99.90
7846;DHT22;3968;51.424;6.788;2023-12-20T12:19:26;8.40;99.90
7846;DHT22;3968;51.424;6.788;2023-12-20T12:22:09;8.40;99.90
7846;DHT22;3968;51.424;6.788;2023-12-20T12:24:39;8.40;99.90
7846;DHT22;3968;51.424;6.788;2023-12-20T12:27:07;8.40;99.90
7846;DHT22;3968;51.424;6.788;2023-12-20T12:29:34;8.40;99.90
7846;DHT22;3968;51.424;6.788;2023-12-20T12:32:00;8.50;99.90
7846;DHT22;3968;51.424;6.788;2023-12-20T12:34:29;8.50;99.90
7846;DHT22;3968;51.424;6.788;2023-12-20T12:36:56;8.60;99.90
7846;DHT22;3968;51.424;6.788;2023-12-20T12:39:23;8.60;99.90
7846;DHT22;3968;51.424;6.788;2023-12-20T12:41:50;8.50;99.90
7846;DHT22;3968;51.424;6.788;2023-12-20T12:44:16;8.50;99.90
7846;DHT22;3968;51.424;6.788;2023-12-20T12:46:43;8.40;99.90
7846;DHT22;3968;51.424;6.788;2023-12-20T12:49:09;8.40;99.90
7846;DHT22;3968;51.424;6.788;2023-12-20T12:51:35;8.40;99.90
7846;DHT22;3968;51.424;6.788;2023-12-20T12:54:00;8.40;99.90
7846;DHT22;3968;51.424;6.788;2023-12-20T12:56:26;8.40;99.90
7846;DHT22;3968;51.424;6.788;2023-12-20T12:58:52;8.40;99.90
7846;DHT22;3968;51.424;6.788;2023-12-20T13:01:17;8.30;99.90
7846;DHT22;3968;51.424;6.788;2023-12-20T13:03:43;8.40;99.90
7846;DHT22;3968;51.424;6.788;2023-12-20T13:06:09;8.40;99.90
7846;DHT22;3968;51.424;6.788;2023-12-20T13:08:34;8.40;99.90
7846;DHT22;3968;51.424;6.788;2023-12-20T13:11:00;8.40;99.90
7846;DHT22;3968;51.424;6.788;2023-12-20T13:13:28;8.40;99.90
7846;DHT22;3968;51.424;6.788;2023-12-20T13:15:54;8.30;99.90
7846;DHT22;3968;51.424;6.788;2023-12-20T13:18:21;8.30;99.90
7846;DHT22;3968;51.424;6.788;2023-12-20T13:20:47;8.30;99.90
7846;DHT22;3968;51.424;6.788;2023-12-20T13:23:13;8.20;99.90
7846;DHT22;3968;51.424;6.788;2023-12-20T13:25:39;8.20;99.90
7846;DHT22;3968;51.424;6.788;2023-12-20T13:28:05;8.20;99.90
7846;DHT22;3968;51.424;6.788;2023-12-20T13:30:30;8.20;99.90
7846;DHT22;3968;51.424;6.788;2023-12-20T13:32:58;8.20;99.90
7846;DHT22;3968;51.424;6.788;2023-12-20T13:35:25;8.20;99.90
7846;DHT22;3968;51.424;6.788;2023-12-20T13:37:50;8.20;99.90
7846;DHT22;3968;51.424;6.788;2023-12-20T13:40:16;8.10;99.90
7846;DHT22;3968;51.424;6.788;2023-12-20T13:42:42;8.10;99.90
7846;DHT22;3968;51.424;6.788;2023-12-20T13:45:07;8.20;99.90
7846;DHT22;3968;51.424;6.788;2023-12-20T13:47:33;8.10;99.90
7846;DHT22;3968;51.424;6.788;2023-12-20T13:49:59;8.20;99.90
7846;DHT22;3968;51.424;6.788;2023-12-20T13:52:25;8.10;99.90
7846;DHT22;3968;51.424;6.788;2023-12-20T13:54:50;8.10;99.90
7846;DHT22;3968;51.424;6.788;2023-12-20T13:57:16;8.10;99.90
7846;DHT22;3968;51.424;6.788;2023-12-20T13:59:42;8.10;99.90
7846;DHT22;3968;51.424;6.788;2023-12-20T14:02:07;8.10;99.90
7846;DHT22;3968;51.424;6.788;2023-12-20T14:04:33;8.10;99.90
7846;DHT22;3968;51.424;6.788;2023-12-20T14:06:59;8.10;99.90
7846;DHT22;3968;51.424;6.788;2023-12-20T14:09:24;8.10;99.90
7846;DHT22;3968;51.424;6.788;2023-12-20T14:11:50;8.10;99.90
7846;DHT22;3968;51.424;6.788;2023-12-20T14:14:16;8.10;99.90
7846;DHT22;3968;51.424;6.788;2023-12-20T14:16:41;8.10;99.90
7846;DHT22;3968;51.424;6.788;2023-12-20T14:19:10;8.10;99.90
7846;DHT22;3968;51.424;6.788;2023-12-20T14:21:36;8.10;99.90
7846;DHT22;3968;51.424;6.788;2023-12-20T14:24:02;8.10;99.90
7846;DHT22;3968;51.424;6.788;2023-12-20T14:26:29;8.10;99.90
7846;DHT22;3968;51.424;6.788;2023-12-20T14:28:55;8.10;99.90
7846;DHT22;3968;51.424;6.788;2023-12-20T14:31:21;8.10;99.90
7846;DHT22;3968;51.424;6.788;2023-12-20T14:33:48;8.10;99.90
7846;DHT22;3968;51.424;6.788;2023-12-20T14:36:16;8.10;99.90
7846;DHT22;3968;51.424;6.788;2023-12-20T14:38:43;8.10;99.90
7846;DHT22;3968;51.424;6.788;2023-12-20T14:41:09;8.10;99.90
7846;DHT22;3968;51.424;6.788;2023-12-20T14:43:34;8.10;99.90
7846;DHT22;3968;51.424;6.788;2023-12-20T14:46:00;8.10;99.90
7846;DHT22;3968;51.424;6.788;2023-12-20T14:48:26;8.20;99.90
7846;DHT22;3968;51.424;6.788;2023-12-20T14:50:53;8.20;99.90
7846;DHT22;3968;51.424;6.788;2023-12-20T14:53:19;8.10;99.90
7846;DHT22;3968;51.424;6.788;2023-12-20T14:55:45;8.20;99.90
7846;DHT22;3968;51.424;6.788;2023-12-20T14:58:11;8.20;99.90
7846;DHT22;3968;51.424;6.788;2023-12-20T15:00:37;8.20;99.90
7846;DHT22;3968;51.424;6.788;2023-12-20T15:03:03;8.20;99.90
7846;DHT22;3968;51.424;6.788;2023-12-20T15:05:30;8.20;99.90
7846;DHT22;3968;51.424;6.788;2023-12-20T15:07:56;8.20;99.90
7846;DHT22;3968;51.424;6.788;2023-12-20T15:10:21;8.20;99.90
7846;DHT22;3968;51.424;6.788;2023-12-20T15:12:47;8.20;99.90
7846;DHT22;3968;51.424;6.788;2023-12-20T15:15:13;8.20;99.90
7846;DHT22;3968;51.424;6.788;2023-12-20T15:17:39;8.20;99.90
7846;DHT22;3968;51.424;6.788;2023-12-20T15:20:05;8.20;99.90
7846;DHT22;3968;51.424;6.788;2023-12-20T15:22:31;8.20;99.90
7846;DHT22;3968;51.424;6.788;2023-12-20T15:24:59;8.20;99.90
7846;DHT22;3968;51.424;6.788;2023-12-20T15:27:25;8.30;99.90
7846;DHT22;3968;51.424;6.788;2023-12-20T15:29:50;8.30;99.90
7846;DHT22;3968;51.424;6.788;2023-12-20T15:32:17;8.30;99.90
7846;DHT22;3968;51.424;6.788;2023-12-20T15:34:44;8.30;99.90
7846;DHT22;3968;51.424;6.788;2023-12-20T15:37:10;8.30;99.90
7846;DHT22;3968;51.424;6.788;2023-12-20T15:39:36;8.30;99.90
7846;DHT22;3968;51.424;6.788;2023-12-20T15:42:01;8.30;99.90
7846;DHT22;3968;51.424;6.788;2023-12-20T15:44:27;8.30;99.90
7846;DHT22;3968;51.424;6.788;2023-12-20T15:46:53;8.30;99.90
7846;DHT22;3968;51.424;6.788;2023-12-20T15:49:18;8.20;99.90
7846;DHT22;3968;51.424;6.788;2023-12-20T15:51:44;8.20;99.90
7846;DHT22;3968;51.424;6.788;2023-12-20T15:54:10;8.20;99.90
7846;DHT22;3968;51.424;6.788;2023-12-20T15:56:36;8.30;99.90
7846;DHT22;3968;51.424;6.788;2023-12-20T15:59:02;8.30;99.90
7846;DHT22;3968;51.424;6.788;2023-12-20T16:01:29;8.30;99.90
7846;DHT22;3968;51.424;6.788;2023-12-20T16:03:55;8.30;99.90
7846;DHT22;3968;51.424;6.788;2023-12-20T16:06:21;8.30;99.90
7846;DHT22;3968;51.424;6.788;2023-12-20T16:08:47;8.30;99.90
7846;DHT22;3968;51.424;6.788;2023-12-20T16:11:12;8.40;99.90
7846;DHT22;3968;51.424;6.788;2023-12-20T16:13:38;8.40;99.90
7846;DHT22;3968;51.424;6.788;2023-12-20T16:16:04;8.40;99.90